Home > Products > Valid Products > TAF

000
FTUS43 KILX 050528
TAFBMI
TAF
KBMI 050528Z 0506/0606 18008KT P6SM SCT250
     FM050900 VRB04KT P6SM SCT250
     FM051500 22008KT P6SM BKN150
     FM060000 17007KT P6SM SCT250=



000
FTUS43 KILX 050528
TAFDEC
TAF
KDEC 050528Z 0506/0606 18008KT P6SM SCT060 SCT150
     FM050900 VRB04KT P6SM SCT250
     FM051500 21007KT P6SM SCT150
     FM060000 15005KT P6SM SCT250=



000
FTUS43 KILX 050528
TAFCMI
TAF
KCMI 050528Z 0506/0606 12005KT P6SM SCT120
     FM051000 VRB03KT 4SM BR SCT250
     FM051400 18006KT P6SM SCT150
     FM060000 14005KT P6SM SCT250=



000
FTUS43 KILX 050528
TAFSPI
TAF
KSPI 050528Z 0506/0606 16008KT P6SM SCT250
     FM050900 VRB04KT P6SM SCT250
     FM051500 19006KT P6SM SCT150
     FM060000 15005KT P6SM SCT250=



000
FTUS43 KILX 050528
TAFPIA
TAF
KPIA 050528Z 0506/0606 17005KT P6SM SCT250
     FM050900 VRB04KT P6SM SCT250
     FM051500 21007KT P6SM BKN150
     FM060000 17005KT P6SM SCT250=



000
FTUS43 KILX 050528
TAFBMI
TAF
KBMI 050528Z 0506/0606 18008KT P6SM SCT250
     FM050900 VRB04KT P6SM SCT250
     FM051500 22008KT P6SM BKN150
     FM060000 17007KT P6SM SCT250=



000
FTUS43 KILX 050528
TAFPIA
TAF
KPIA 050528Z 0506/0606 17005KT P6SM SCT250
     FM050900 VRB04KT P6SM SCT250
     FM051500 21007KT P6SM BKN150
     FM060000 17005KT P6SM SCT250=



000
FTUS43 KILX 050528
TAFDEC
TAF
KDEC 050528Z 0506/0606 18008KT P6SM SCT060 SCT150
     FM050900 VRB04KT P6SM SCT250
     FM051500 21007KT P6SM SCT150
     FM060000 15005KT P6SM SCT250=



000
FTUS43 KILX 050528
TAFSPI
TAF
KSPI 050528Z 0506/0606 16008KT P6SM SCT250
     FM050900 VRB04KT P6SM SCT250
     FM051500 19006KT P6SM SCT150
     FM060000 15005KT P6SM SCT250=



000
FTUS43 KILX 050528
TAFCMI
TAF
KCMI 050528Z 0506/0606 12005KT P6SM SCT120
     FM051000 VRB03KT 4SM BR SCT250
     FM051400 18006KT P6SM SCT150
     FM060000 14005KT P6SM SCT250=



000
FTUS43 KILX 050406 AAB
TAFDEC
TAF AMD
KDEC 050406Z 0504/0524 12012KT P6SM VCTS SCT040CB BKN120
     FM050600 VRB05KT P6SM SCT060 SCT150
     FM051500 21007KT P6SM BKN150=



000
FTUS43 KILX 050406 AAB
TAFDEC
TAF AMD
KDEC 050406Z 0504/0524 12012KT P6SM VCTS SCT040CB BKN120
     FM050600 VRB05KT P6SM SCT060 SCT150
     FM051500 21007KT P6SM BKN150=



000
FTUS43 KILX 050309 AAA
TAFDEC
TAF AMD
KDEC 050309Z 0503/0524 12012KT P6SM SCT050 BKN120
     FM050500 VRB05KT P6SM SCT060 SCT150
     FM051500 21007KT P6SM BKN150=



000
FTUS43 KILX 050257 AAC
TAFCMI
TAF AMD
KCMI 050257Z 0503/0524 13010G17KT P6SM VCTS SCT035CB BKN120
     FM050400 VRB05KT P6SM SCT045 BKN250
     FM051000 VRB03KT 4SM BR SCT250
     FM051400 18006KT P6SM BKN150=



000
FTUS43 KILX 050211 AAA
TAFBMI
TAF AMD
KBMI 050211Z 0502/0524 14009KT P6SM VCTS SCT020CB BKN100
      TEMPO 0502/0503 5SM TSRA BR BKN018CB
     FM050300 VRB03KT P6SM SCT030 BKN250
     FM051500 22008KT P6SM BKN150=



000
FTUS43 KILX 050211 AAA
TAFBMI
TAF AMD
KBMI 050211Z 0502/0524 14009KT P6SM VCTS SCT020CB BKN100
      TEMPO 0502/0503 5SM TSRA BR BKN018CB
     FM050300 VRB03KT P6SM SCT030 BKN250
     FM051500 22008KT P6SM BKN150=



000
FTUS43 KILX 050142 AAB
TAFCMI
TAF AMD
KCMI 050142Z 0502/0524 01010KT 4SM TSRA SCT015CB OVC050
      TEMPO 0502/0503 01018G27KT 3/4SM +TSRA BR BKN018CB
     FM050300 VRB03KT P6SM SCT035 BKN250
     FM051000 VRB03KT 4SM BR SCT250
     FM051400 18006KT P6SM BKN150=



000
FTUS43 KILX 050135 AAA
TAFCMI
TAF AMD
KCMI 050135Z 0502/0524 25007KT P6SM VCTS SCT025CB OVC060
      TEMPO 0502/0503 01018G27KT 1 1/2SM +TSRA BR BKN025CB
     FM050300 VRB03KT P6SM SCT035 BKN250
     FM051000 VRB03KT 4SM BR SCT250
     FM051400 18006KT P6SM BKN150=



000
FTUS43 KILX 042340
TAFPIA
TAF
KPIA 042340Z 0500/0524 28005KT P6SM SCT050 BKN120
     FM050200 VRB03KT P6SM SCT250
     FM051500 21007KT P6SM BKN150=



000
FTUS43 KILX 042340
TAFCMI
TAF
KCMI 042340Z 0500/0524 25006KT P6SM VCTS SCT050CB BKN120
      TEMPO 0500/0502 VRB15G25KT 4SM TSRA BR BKN050CB
     FM050200 VRB03KT P6SM SCT250
     FM051000 VRB03KT 4SM BR SKC
     FM051400 18006KT P6SM BKN150=



000
FTUS43 KILX 042340
TAFSPI
TAF
KSPI 042340Z 0500/0524 23006KT P6SM SCT050
     FM050100 VRB03KT P6SM SCT250
     FM051500 21006KT P6SM BKN150=



000
FTUS43 KILX 042340
TAFDEC
TAF
KDEC 042340Z 0500/0524 20007KT P6SM VCTS SCT050CB BKN100
      TEMPO 0500/0501 VRB15G25KT 4SM TSRA BR BKN050CB
     FM050200 VRB03KT P6SM SCT250
     FM051500 21007KT P6SM BKN150=



000
FTUS43 KILX 042340
TAFBMI
TAF
KBMI 042340Z 0500/0524 23008KT P6SM VCTS SCT050CB BKN120
      TEMPO 0500/0502 4SM TSRA BR BKN040CB
     FM050200 VRB03KT P6SM SCT250
     FM051500 22008KT P6SM BKN150=



000
FTUS43 KILX 042340
TAFBMI
TAF
KBMI 042340Z 0500/0524 23008KT P6SM VCTS SCT050CB BKN120
      TEMPO 0500/0502 4SM TSRA BR BKN040CB
     FM050200 VRB03KT P6SM SCT250
     FM051500 22008KT P6SM BKN150=



000
FTUS43 KILX 042340
TAFDEC
TAF
KDEC 042340Z 0500/0524 20007KT P6SM VCTS SCT050CB BKN100
      TEMPO 0500/0501 VRB15G25KT 4SM TSRA BR BKN050CB
     FM050200 VRB03KT P6SM SCT250
     FM051500 21007KT P6SM BKN150=



000
FTUS43 KILX 042340
TAFPIA
TAF
KPIA 042340Z 0500/0524 28005KT P6SM SCT050 BKN120
     FM050200 VRB03KT P6SM SCT250
     FM051500 21007KT P6SM BKN150=



000
FTUS43 KILX 042340
TAFSPI
TAF
KSPI 042340Z 0500/0524 23006KT P6SM SCT050
     FM050100 VRB03KT P6SM SCT250
     FM051500 21006KT P6SM BKN150=



000
FTUS43 KILX 042340
TAFCMI
TAF
KCMI 042340Z 0500/0524 25006KT P6SM VCTS SCT050CB BKN120
      TEMPO 0500/0502 VRB15G25KT 4SM TSRA BR BKN050CB
     FM050200 VRB03KT P6SM SCT250
     FM051000 VRB03KT 4SM BR SKC
     FM051400 18006KT P6SM BKN150=



000
FTUS43 KILX 042230 AAA
TAFCMI
TAF AMD
KCMI 042230Z 0422/0518 25006KT P6SM VCTS SCT050CB BKN120
     FM050100 VRB03KT P6SM SCT250
     FM051000 VRB03KT 4SM BR SKC
     FM051300 18004KT P6SM SCT040=



000
FTUS43 KILX 042230 AAA
TAFCMI
TAF AMD
KCMI 042230Z 0422/0518 25006KT P6SM VCTS SCT050CB BKN120
     FM050100 VRB03KT P6SM SCT250
     FM051000 VRB03KT 4SM BR SKC
     FM051300 18004KT P6SM SCT040=



000
FTUS43 KILX 042227 AAA
TAFDEC
TAF AMD
KDEC 042227Z 0422/0518 23007KT P6SM VCTS SCT050CB
     FM050100 VRB03KT P6SM SCT250=



000
FTUS43 KILX 042227 AAA
TAFDEC
TAF AMD
KDEC 042227Z 0422/0518 23007KT P6SM VCTS SCT050CB
     FM050100 VRB03KT P6SM SCT250=



000
FTUS43 KILX 041823 AAA
TAFPIA
TAF AMD
KPIA 041823Z 0418/0518 22005KT P6SM VCTS SCT050CB BKN120
     FM050000 VRB03KT P6SM SCT250=



000
FTUS43 KILX 041723
TAFSPI
TAF
KSPI 041723Z 0418/0518 23006KT P6SM SCT050
     FM050000 VRB03KT P6SM SCT250=



000
FTUS43 KILX 041723
TAFPIA
TAF
KPIA 041723Z 0418/0518 22005KT P6SM SCT050
     FM050000 VRB03KT P6SM SCT250=



000
FTUS43 KILX 041723
TAFBMI
TAF
KBMI 041723Z 0418/0518 23008KT P6SM SCT050 BKN120
     FM050100 VRB03KT P6SM SCT250=



000
FTUS43 KILX 041723
TAFDEC
TAF
KDEC 041723Z 0418/0518 23007KT P6SM SCT050
     FM050000 VRB03KT P6SM SCT250=



000
FTUS43 KILX 041723
TAFCMI
TAF
KCMI 041723Z 0418/0518 23007KT P6SM SCT050 BKN120
     FM050000 VRB03KT P6SM SCT250
     FM051000 VRB03KT 4SM BR SKC
     FM051300 18004KT P6SM SCT040=



000
FTUS43 KILX 041723
TAFPIA
TAF
KPIA 041723Z 0418/0518 22005KT P6SM SCT050
     FM050000 VRB03KT P6SM SCT250=



000
FTUS43 KILX 041723
TAFBMI
TAF
KBMI 041723Z 0418/0518 23008KT P6SM SCT050 BKN120
     FM050100 VRB03KT P6SM SCT250=



000
FTUS43 KILX 041723
TAFDEC
TAF
KDEC 041723Z 0418/0518 23007KT P6SM SCT050
     FM050000 VRB03KT P6SM SCT250=



000
FTUS43 KILX 041723
TAFCMI
TAF
KCMI 041723Z 0418/0518 23007KT P6SM SCT050 BKN120
     FM050000 VRB03KT P6SM SCT250
     FM051000 VRB03KT 4SM BR SKC
     FM051300 18004KT P6SM SCT040=



000
FTUS43 KILX 041723
TAFSPI
TAF
KSPI 041723Z 0418/0518 23006KT P6SM SCT050
     FM050000 VRB03KT P6SM SCT250=



000
FTUS43 KILX 041120
TAFBMI
TAF
KBMI 041120Z 0412/0512 VRB03KT P6SM SKC
      TEMPO 0412/0413 5SM BR
     FM041600 23008KT P6SM SCT050
     FM050100 VRB03KT P6SM SCT250=



000
FTUS43 KILX 041120
TAFBMI
TAF
KBMI 041120Z 0412/0512 VRB03KT P6SM SKC
      TEMPO 0412/0413 5SM BR
     FM041600 23008KT P6SM SCT050
     FM050100 VRB03KT P6SM SCT250=



000
FTUS43 KILX 041120
TAFPIA
TAF
KPIA 041120Z 0412/0512 VRB03KT P6SM SKC
     FM041600 22006KT P6SM SCT050
     FM050000 VRB03KT P6SM SCT250=



000
FTUS43 KILX 041120
TAFSPI
TAF
KSPI 041120Z 0412/0512 VRB03KT P6SM SKC
     FM041600 22006KT P6SM SCT050
     FM050000 VRB03KT P6SM SCT250=



000
FTUS43 KILX 041120
TAFDEC
TAF
KDEC 041120Z 0412/0512 VRB03KT P6SM SKC
     FM041600 23007KT P6SM SCT050
     FM050000 VRB03KT P6SM SCT250=



000
FTUS43 KILX 041120
TAFCMI
TAF
KCMI 041120Z 0412/0512 VRB03KT P6SM SKC
      TEMPO 0412/0413 5SM BR
     FM041600 23007KT P6SM SCT050
     FM050000 VRB03KT P6SM SCT250=



000
FTUS43 KILX 041120
TAFSPI
TAF
KSPI 041120Z 0412/0512 VRB03KT P6SM SKC
     FM041600 22006KT P6SM SCT050
     FM050000 VRB03KT P6SM SCT250=



000
FTUS43 KILX 041120
TAFCMI
TAF
KCMI 041120Z 0412/0512 VRB03KT P6SM SKC
      TEMPO 0412/0413 5SM BR
     FM041600 23007KT P6SM SCT050
     FM050000 VRB03KT P6SM SCT250=



000
FTUS43 KILX 041120
TAFDEC
TAF
KDEC 041120Z 0412/0512 VRB03KT P6SM SKC
     FM041600 23007KT P6SM SCT050
     FM050000 VRB03KT P6SM SCT250=



000
FTUS43 KILX 041120
TAFPIA
TAF
KPIA 041120Z 0412/0512 VRB03KT P6SM SKC
     FM041600 22006KT P6SM SCT050
     FM050000 VRB03KT P6SM SCT250=



000
FTUS43 KILX 040534
TAFCMI
TAF
KCMI 040534Z 0406/0506 21004KT P6SM SKC
      TEMPO 0409/0413 5SM BR
     FM041600 21007KT P6SM SCT040
     FM050000 18005KT P6SM SCT250=



000
FTUS43 KILX 040534
TAFSPI
TAF
KSPI 040534Z 0406/0506 VRB04KT P6SM SCT100
     FM041600 22006KT P6SM SCT050
     FM050000 18005KT P6SM SCT250=



000
FTUS43 KILX 040534
TAFDEC
TAF
KDEC 040534Z 0406/0506 23004KT P6SM SCT100
     FM041600 23007KT P6SM SCT050
     FM050000 19005KT P6SM SCT250=



000
FTUS43 KILX 040534
TAFBMI
TAF
KBMI 040534Z 0406/0506 VRB04KT P6SM SKC
      TEMPO 0409/0413 5SM BR
     FM041600 23008KT P6SM SCT040
     FM050100 19006KT P6SM SCT250=



000
FTUS43 KILX 040534
TAFPIA
TAF
KPIA 040534Z 0406/0506 VRB04KT P6SM SCT100
      TEMPO 0409/0413 5SM BR
     FM041600 22006KT P6SM SCT050
     FM050000 20005KT P6SM SCT250=



000
FTUS43 KILX 032327
TAFDEC
TAF
KDEC 032327Z 0400/0424 21007KT P6SM SKC
     FM041300 23007KT P6SM SCT040=



000
FTUS43 KILX 032327
TAFPIA
TAF
KPIA 032327Z 0400/0424 20005KT P6SM SKC
     FM041300 22006KT P6SM SCT040=



000
FTUS43 KILX 032327
TAFBMI
TAF
KBMI 032327Z 0400/0424 24006KT P6SM SKC
     FM040900 22004KT 5SM BR SCT250
     FM041300 23008KT P6SM SCT040=



000
FTUS43 KILX 032327
TAFSPI
TAF
KSPI 032327Z 0400/0424 22005KT P6SM SKC
     FM041300 23007KT P6SM SCT040=



000
FTUS43 KILX 032327
TAFCMI
TAF
KCMI 032327Z 0400/0424 22005KT P6SM SKC
     FM040900 20003KT 5SM BR SCT250
     FM041300 22007KT P6SM SCT040=



000
FTUS43 KILX 032327
TAFBMI
TAF
KBMI 032327Z 0400/0424 24006KT P6SM SKC
     FM040900 22004KT 5SM BR SCT250
     FM041300 23008KT P6SM SCT040=



000
FTUS43 KILX 032327
TAFSPI
TAF
KSPI 032327Z 0400/0424 22005KT P6SM SKC
     FM041300 23007KT P6SM SCT040=



000
FTUS43 KILX 032327
TAFCMI
TAF
KCMI 032327Z 0400/0424 22005KT P6SM SKC
     FM040900 20003KT 5SM BR SCT250
     FM041300 22007KT P6SM SCT040=



000
FTUS43 KILX 032327
TAFDEC
TAF
KDEC 032327Z 0400/0424 21007KT P6SM SKC
     FM041300 23007KT P6SM SCT040=



000
FTUS43 KILX 032327
TAFPIA
TAF
KPIA 032327Z 0400/0424 20005KT P6SM SKC
     FM041300 22006KT P6SM SCT040=



000
FTUS43 KILX 032119 AAA
TAFDEC
TAF AMD
KDEC 032119Z 0321/0418 25008KT P6SM SCT060
     FM040000 21003KT P6SM SCT100 BKN250
     FM041300 23007KT P6SM SCT045=



000
FTUS43 KILX 032118 AAA
TAFSPI
TAF AMD
KSPI 032118Z 0321/0418 24009KT P6SM SCT060
     FM040000 21003KT P6SM SCT100 BKN250
     FM041300 23007KT P6SM SCT045=



000
FTUS43 KILX 031931 AAA
TAFCMI
TAF AMD
KCMI 031931Z 0320/0418 23010KT P6SM SCT060
     FM040000 21006KT P6SM SCT070 BKN250
     FM040900 20005KT 5SM BR SCT070 BKN250
     FM041300 22007KT P6SM SCT040=



000
FTUS43 KILX 031931 AAA
TAFCMI
TAF AMD
KCMI 031931Z 0320/0418 23010KT P6SM SCT060
     FM040000 21006KT P6SM SCT070 BKN250
     FM040900 20005KT 5SM BR SCT070 BKN250
     FM041300 22007KT P6SM SCT040=



000
FTUS43 KILX 031740 CCA
TAFSPI
TAF COR
KSPI 031740Z 0318/0418 23012KT P6SM SCT050
     FM040000 21003KT P6SM SCT100 BKN250
     FM041300 23007KT P6SM SCT045=



000
FTUS43 KILX 031740 CCA
TAFSPI
TAF COR
KSPI 031740Z 0318/0418 23012KT P6SM SCT050
     FM040000 21003KT P6SM SCT100 BKN250
     FM041300 23007KT P6SM SCT045=



000
FTUS43 KILX 031739 CCA
TAFDEC
TAF COR
KDEC 031739Z 0318/0418 24012KT P6SM SCT050
     FM040000 21003KT P6SM SCT100 BKN250
     FM041300 23007KT P6SM SCT045=



000
FTUS43 KILX 031727
TAFBMI
TAF
KBMI 031727Z 0318/0418 24012KT P6SM SCT050
     FM040000 23007KT P6SM SCT080 BKN250
     FM040900 22004KT 5SM BR SCT080 BKN250
     FM041300 23008KT P6SM SCT045=



000
FTUS43 KILX 031727
TAFPIA
TAF
KPIA 031727Z 0318/0418 24012KT P6SM SCT050
     FM040000 20003KT P6SM SCT100 BKN250
     FM041300 22006KT P6SM SCT045 BKN250=



000
FTUS43 KILX 031727
TAFDEC
TAF
KDEC 031727Z 0318/0418 24012KT P6SM BKN050
     FM040000 21003KT P6SM SCT100 BKN250
     FM041300 23007KT P6SM SCT045=



000
FTUS43 KILX 031727
TAFCMI
TAF
KCMI 031727Z 0318/0418 23012KT P6SM BKN045
     FM040000 21006KT P6SM SCT070 BKN250
     FM040900 20005KT 5SM BR SCT070 BKN250
     FM041300 22007KT P6SM SCT040=



000
FTUS43 KILX 031727
TAFBMI
TAF
KBMI 031727Z 0318/0418 24012KT P6SM SCT050
     FM040000 23007KT P6SM SCT080 BKN250
     FM040900 22004KT 5SM BR SCT080 BKN250
     FM041300 23008KT P6SM SCT045=



000
FTUS43 KILX 031727
TAFCMI
TAF
KCMI 031727Z 0318/0418 23012KT P6SM BKN045
     FM040000 21006KT P6SM SCT070 BKN250
     FM040900 20005KT 5SM BR SCT070 BKN250
     FM041300 22007KT P6SM SCT040=



000
FTUS43 KILX 031727
TAFDEC
TAF
KDEC 031727Z 0318/0418 24012KT P6SM BKN050
     FM040000 21003KT P6SM SCT100 BKN250
     FM041300 23007KT P6SM SCT045=



000
FTUS43 KILX 031727
TAFPIA
TAF
KPIA 031727Z 0318/0418 24012KT P6SM SCT050
     FM040000 20003KT P6SM SCT100 BKN250
     FM041300 22006KT P6SM SCT045 BKN250=



000
FTUS43 KILX 031727
TAFSPI
TAF
KSPI 031727Z 0318/0418 23012KT P6SM BKN050
     FM040000 21003KT P6SM SCT100 BKN250
     FM041300 23007KT P6SM SCT045=



000
FTUS43 KILX 031727
TAFSPI
TAF
KSPI 031727Z 0318/0418 23012KT P6SM BKN050
     FM040000 21003KT P6SM SCT100 BKN250
     FM041300 23007KT P6SM SCT045=



000
FTUS43 KILX 031134
TAFBMI
TAF
KBMI 031134Z 0312/0412 21005KT P6SM BKN100
     FM031600 23009KT P6SM BKN100
     FM040000 21005KT P6SM BKN100=



000
FTUS43 KILX 031134
TAFPIA
TAF
KPIA 031134Z 0312/0412 19004KT P6SM BKN100
      TEMPO 0312/0314 5SM BR
     FM031600 22008KT P6SM BKN100
     FM040000 20003KT P6SM BKN100=



000
FTUS43 KILX 031134
TAFSPI
TAF
KSPI 031134Z 0312/0412 22007KT P6SM BKN100
     FM040000 21003KT P6SM BKN100=



000
FTUS43 KILX 031134
TAFCMI
TAF
KCMI 031134Z 0312/0412 19004KT P6SM SCT080
      TEMPO 0312/0314 5SM BR
     FM031600 23008KT P6SM BKN080
     FM040000 20003KT P6SM BKN080=



000
FTUS43 KILX 031134
TAFDEC
TAF
KDEC 031134Z 0312/0412 22007KT P6SM BKN100
     FM040000 21003KT P6SM BKN100=



000
FTUS43 KILX 031134
TAFCMI
TAF
KCMI 031134Z 0312/0412 19004KT P6SM SCT080
      TEMPO 0312/0314 5SM BR
     FM031600 23008KT P6SM BKN080
     FM040000 20003KT P6SM BKN080=



000
FTUS43 KILX 031134
TAFDEC
TAF
KDEC 031134Z 0312/0412 22007KT P6SM BKN100
     FM040000 21003KT P6SM BKN100=



000
FTUS43 KILX 031134
TAFPIA
TAF
KPIA 031134Z 0312/0412 19004KT P6SM BKN100
      TEMPO 0312/0314 5SM BR
     FM031600 22008KT P6SM BKN100
     FM040000 20003KT P6SM BKN100=



000
FTUS43 KILX 031134
TAFSPI
TAF
KSPI 031134Z 0312/0412 22007KT P6SM BKN100
     FM040000 21003KT P6SM BKN100=



000
FTUS43 KILX 031134
TAFBMI
TAF
KBMI 031134Z 0312/0412 21005KT P6SM BKN100
     FM031600 23009KT P6SM BKN100
     FM040000 21005KT P6SM BKN100=



000
FTUS43 KILX 030530
TAFPIA
TAF
KPIA 030530Z 0306/0406 20004KT P6SM SCT120
      TEMPO 0308/0312 4SM BR
     FM031800 22008KT P6SM BKN080
     FM040000 VRB05KT P6SM BKN080=



000
FTUS43 KILX 030530
TAFCMI
TAF
KCMI 030530Z 0306/0406 20004KT P6SM SKC
     FM030800 20004KT P6SM SCT120
      TEMPO 0308/0312 4SM BR
     FM031800 22007KT P6SM BKN060
     FM040000 21004KT P6SM BKN060=



000
FTUS43 KILX 030530
TAFBMI
TAF
KBMI 030530Z 0306/0406 21005KT P6SM SCT120
      TEMPO 0308/0312 4SM BR
     FM031800 22010KT P6SM BKN060
     FM040000 20006KT P6SM BKN060=



000
FTUS43 KILX 030530
TAFDEC
TAF
KDEC 030530Z 0306/0406 21006KT P6SM SKC
      TEMPO 0308/0312 4SM BR
     FM031800 22008KT P6SM BKN080
     FM040000 21004KT P6SM BKN080=



000
FTUS43 KILX 030530
TAFSPI
TAF
KSPI 030530Z 0306/0406 19004KT P6SM SCT120
     FM031700 22008KT P6SM SCT080
     FM040000 19004KT P6SM SKC=



000
FTUS43 KILX 022327
TAFPIA
TAF
KPIA 022327Z 0300/0324 22005KT P6SM SCT120 BKN250
      TEMPO 0308/0312 4SM BR
     FM031800 22008KT P6SM BKN080=



000
FTUS43 KILX 022327
TAFSPI
TAF
KSPI 022327Z 0300/0324 20006KT P6SM SCT120 BKN250
     FM031700 22008KT P6SM SCT080 SCT250=



000
FTUS43 KILX 022327
TAFCMI
TAF
KCMI 022327Z 0300/0324 20006KT P6SM SCT060 BKN250
      TEMPO 0308/0312 4SM BR
     FM031800 22007KT P6SM BKN060=



000
FTUS43 KILX 022327
TAFBMI
TAF
KBMI 022327Z 0300/0324 20006KT P6SM SCT050 BKN250
      TEMPO 0308/0312 4SM BR
     FM031800 22010KT P6SM BKN060=



000
FTUS43 KILX 022327
TAFDEC
TAF
KDEC 022327Z 0300/0324 21006KT P6SM SCT120 BKN250
      TEMPO 0308/0312 4SM BR
     FM031800 22008KT P6SM BKN080=



000
FTUS43 KILX 022327
TAFSPI
TAF
KSPI 022327Z 0300/0324 20006KT P6SM SCT120 BKN250
     FM031700 22008KT P6SM SCT080 SCT250=



000
FTUS43 KILX 022327
TAFBMI
TAF
KBMI 022327Z 0300/0324 20006KT P6SM SCT050 BKN250
      TEMPO 0308/0312 4SM BR
     FM031800 22010KT P6SM BKN060=



000
FTUS43 KILX 022327
TAFCMI
TAF
KCMI 022327Z 0300/0324 20006KT P6SM SCT060 BKN250
      TEMPO 0308/0312 4SM BR
     FM031800 22007KT P6SM BKN060=



000
FTUS43 KILX 022327
TAFPIA
TAF
KPIA 022327Z 0300/0324 22005KT P6SM SCT120 BKN250
      TEMPO 0308/0312 4SM BR
     FM031800 22008KT P6SM BKN080=



000
FTUS43 KILX 022327
TAFDEC
TAF
KDEC 022327Z 0300/0324 21006KT P6SM SCT120 BKN250
      TEMPO 0308/0312 4SM BR
     FM031800 22008KT P6SM BKN080=



000
FTUS43 KILX 022239 AAA
TAFCMI
TAF AMD
KCMI 022239Z 0223/0318 22007KT P6SM VCTS SCT040CB
      TEMPO 0223/0224 4SM -TSRA BKN040CB
     FM030000 20005KT P6SM SCT080 BKN250
      TEMPO 0308/0312 4SM BR=



000
FTUS43 KILX 021721
TAFPIA
TAF
KPIA 021721Z 0218/0318 21009KT P6SM SCT040
     FM030000 19005KT P6SM SCT100 BKN250
      TEMPO 0308/0312 4SM BR=



000
FTUS43 KILX 021721
TAFCMI
TAF
KCMI 021721Z 0218/0318 22009KT P6SM SCT040
     FM030000 20005KT P6SM SCT080 BKN250
      TEMPO 0308/0312 4SM BR=



000
FTUS43 KILX 021721
TAFSPI
TAF
KSPI 021721Z 0218/0318 22009KT P6SM SCT040
     FM030000 19005KT P6SM SCT100
      TEMPO 0308/0312 4SM BR
     FM031400 24006KT P6SM SCT250=



000
FTUS43 KILX 021721
TAFBMI
TAF
KBMI 021721Z 0218/0318 21008KT P6SM SCT040
     FM030000 20005KT P6SM SCT080 BKN250
      TEMPO 0308/0312 4SM BR=



000
FTUS43 KILX 021721
TAFDEC
TAF
KDEC 021721Z 0218/0318 22009KT P6SM SCT040
     FM030000 21005KT P6SM SCT100 BKN250
      TEMPO 0308/0312 4SM BR=



000
FTUS43 KILX 021135
TAFCMI
TAF
KCMI 021135Z 0212/0312 21006KT P6SM SKC
      TEMPO 0212/0214 4SM BR
     FM021700 21010KT P6SM SCT040
     FM030000 19005KT P6SM SCT100
      TEMPO 0308/0312 4SM BR=



000
FTUS43 KILX 021135
TAFSPI
TAF
KSPI 021135Z 0212/0312 21006KT P6SM SKC
     FM021700 21010KT P6SM SCT040
     FM030000 19005KT P6SM SCT100
      TEMPO 0308/0312 4SM BR=



000
FTUS43 KILX 021135
TAFBMI
TAF
KBMI 021135Z 0212/0312 22008KT P6SM SKC
      TEMPO 0212/0214 5SM BR
     FM021700 21011KT P6SM SCT040
     FM030000 20005KT P6SM SCT100
      TEMPO 0308/0312 4SM BR=



000
FTUS43 KILX 021135
TAFDEC
TAF
KDEC 021135Z 0212/0312 21006KT P6SM SKC
     FM021700 21010KT P6SM SCT040
     FM030000 19005KT P6SM SCT100
      TEMPO 0308/0312 4SM BR=



000
FTUS43 KILX 021135
TAFCMI
TAF
KCMI 021135Z 0212/0312 21006KT P6SM SKC
      TEMPO 0212/0214 4SM BR
     FM021700 21010KT P6SM SCT040
     FM030000 19005KT P6SM SCT100
      TEMPO 0308/0312 4SM BR=



000
FTUS43 KILX 021135
TAFPIA
TAF
KPIA 021135Z 0212/0312 19004KT P6SM SKC
      TEMPO 0212/0214 4SM BR
     FM021700 21010KT P6SM SCT040
     FM030000 19005KT P6SM SCT100
      TEMPO 0308/0312 4SM BR=



000
FTUS43 KILX 021135
TAFPIA
TAF
KPIA 021135Z 0212/0312 19004KT P6SM SKC
      TEMPO 0212/0214 4SM BR
     FM021700 21010KT P6SM SCT040
     FM030000 19005KT P6SM SCT100
      TEMPO 0308/0312 4SM BR=



000
FTUS43 KILX 021135
TAFDEC
TAF
KDEC 021135Z 0212/0312 21006KT P6SM SKC
     FM021700 21010KT P6SM SCT040
     FM030000 19005KT P6SM SCT100
      TEMPO 0308/0312 4SM BR=



000
FTUS43 KILX 021135
TAFSPI
TAF
KSPI 021135Z 0212/0312 21006KT P6SM SKC
     FM021700 21010KT P6SM SCT040
     FM030000 19005KT P6SM SCT100
      TEMPO 0308/0312 4SM BR=



000
FTUS43 KILX 021135
TAFBMI
TAF
KBMI 021135Z 0212/0312 22008KT P6SM SKC
      TEMPO 0212/0214 5SM BR
     FM021700 21011KT P6SM SCT040
     FM030000 20005KT P6SM SCT100
      TEMPO 0308/0312 4SM BR=



    US Dept of Commerce
    National Oceanic and Atmospheric Administration
    National Weather Service
    1325 East West Highway
    Silver Spring, MD 20910
    Page Author: NWS Internet Services Team
Disclaimer
Information Quality
Credits
Glossary
Privacy Policy
Freedom of Information Act (FOIA)
About Us
Career Opportunities